| Date | Time | Temp. (oF) | Dew Point (oF) | Rel. Hum. (%) | Press. (in.) | Wind Dir. | Wind Speed (mph) | Hourly Rainfall (in.) |
|
|---|---|---|---|---|---|---|---|---|---|
| 1 | 06/14 | 00:00 | 70 | 50 | 50 | 29.79 | W | 7 | 0.00 |
| 2 | 06/13 | 23:00 | 71 | 51 | 50 | 29.77 | N | 0 | 0.00 |
| 3 | 06/13 | 22:00 | 71 | 51 | 50 | 29.76 | WSW | 3 | 0.00 |
| 4 | 06/13 | 21:00 | 71 | 51 | 50 | 29.76 | SW | 2 | 0.00 |
| 5 | 06/13 | 20:00 | 72 | 49 | 46 | 29.76 | SSE | 0 | 0.00 |
| 6 | 06/13 | 19:00 | 74 | 50 | 44 | 29.76 | W | 0 | 0.00 |
| 7 | 06/13 | 18:00 | 75 | 49 | 41 | 29.75 | W | 3 | 0.00 |
| 8 | 06/13 | 17:00 | 75 | 49 | 41 | 29.77 | WSW | 13 | 0.00 |
| 9 | 06/13 | 16:00 | 76 | 49 | 40 | 29.79 | W | 8 | 0.00 |
| 10 | 06/13 | 15:00 | 74 | 49 | 43 | 29.81 | ENE | 13 | 0.00 |
| 11 | 06/13 | 14:00 | 72 | 48 | 44 | 29.82 | WSW | 9 | 0.00 |
| 12 | 06/13 | 13:00 | 71 | 50 | 48 | 29.84 | S | 7 | 0.00 |
| 13 | 06/13 | 12:00 | 69 | 47 | 46 | 29.87 | NNW | 8 | 0.00 |
| 14 | 06/13 | 11:00 | 68 | 47 | 48 | 29.89 | W | 5 | 0.00 |
| 15 | 06/13 | 10:00 | 65 | 46 | 51 | 29.88 | W | 6 | 0.00 |
| 16 | 06/13 | 09:00 | 63 | 45 | 52 | 29.88 | N | 8 | 0.00 |
| 17 | 06/13 | 08:00 | 61 | 44 | 54 | 29.88 | N | 5 | 0.00 |
| 18 | 06/13 | 07:00 | 59 | 43 | 56 | 29.87 | N | 10 | 0.00 |
| 19 | 06/13 | 06:00 | 60 | 43 | 54 | 29.85 | N | 5 | 0.00 |
| 20 | 06/13 | 05:00 | 61 | 43 | 52 | 29.84 | NNE | 6 | 0.00 |
| 21 | 06/13 | 04:00 | 62 | 44 | 52 | 29.82 | N | 2 | 0.00 |
| 22 | 06/13 | 03:00 | 62 | 43 | 50 | 29.81 | N | 5 | 0.00 |
| 23 | 06/13 | 02:00 | 64 | 43 | 48 | 29.81 | NNE | 4 | 0.00 |
| 24 | 06/13 | 01:00 | 64 | 43 | 47 | 29.81 | NNE | 14 | 0.00 |